Aérodrome :
LOGIN :

S'inscrire | Disclaimer

   EN    FR    IT 

 










Légende :    VFR   VFR Marginal   IFR   IFR Intensif   IFR Très Intensif
Visi : 
Plafond : 
>= 8 km
>= 3000ft
5 à 8 km
1000 à 3000 ft
1500m à 5 km
500 à 1000 ft
800 à 1500m
200 à 500 ft
< 800m
< 200 ft
Symboles :   Orages  Brouillard  Fortes neiges  Fortes précipitations  Vent > 20 kt
SIGMETs :   Divers  Orages  Givrage  Turbulence  Onde Orograph.  Cendres Volcan.






- Altitude de l'aérodrome : 587 ft
- Code IATA : XCR


LFOK - Chalons Vatry

DERNIER METAR :
  • 280730Z AUTO 31011KT 9999 OVC009 03/03 Q0997 TEMPO 3000 SHRA

METARs EXPIRÉS :
  • 280700Z AUTO 32012KT 9999 OVC009/// ///TCU 03/03 Q0997 TEMPO 3000 SHRA BKN005 BKN015
  • 280630Z AUTO 31010KT 9999 OVC008 03/03 Q0997 TEMPO 3000 SHRA
  • 280600Z AUTO 33012KT 9999 OVC008 03/02 Q0996 TEMPO 3000 SHRA
  • 280530Z AUTO 32014KT 9999 OVC008 03/02 Q0996 TEMPO 3000 SHRA
  • 280500Z AUTO 32014KT 9999 OVC007/// ///TCU 03/03 Q0996 TEMPO BKN005 BKN015

TAF TAF LFOK
Valide du 28 à 06h jusqu'au 29 à 06h UTC


280500Z 2806/2906 32012KT 9999 SCT007 BKN015
TEMPO 2806/2817 3000 SHRA BKN005 BKN015
TEMPO 2817/2904 1500 RASN BKN003 BKN015
PROB30 2821/2904 SN



MET'MAP, la Météo Aéronautique d'un coup d'oeil ! - Copyright ORBIFLY Décembre 2007 - Disclaimer

ORBIFLY MET'MAP TEAM :

Programmation & Développement : Alexandra Zaïnal
Sur une idée originale de : Baudouin d'Aumeries
Assistance à la programmation : Marc-Olivier Méhu
Soutien technique & logistique : Manuel Goepfert

Contact : metmap@orbifly.com




SOURCES & CREDITS :

   NOAA